MMVA/VSA METAR and TAF weather

Enter ICAO airport designator
Station Type Date Time Source
MMVA METAR 2020/09/22 02:45 UTC NOAA

MMVA 220245Z 00000KT 6SM SCT030 BKN200 25/25 A2998 RMK 6//// 8/503


Station Type Date Time Source
MMVA Decoded METAR 2020/09/22 02:45 UTC NOAA

Villahermosa , Mexico (MMVA) 18-00N 092-49W
Sep 21, 2020 - 10:45 PM EDT / 2020.09.22 0245 UTC
Wind: Calm:0
Visibility: 6 mile(s):0
Sky conditions: mostly cloudy
Temperature: 77 F (25 C)
Dew Point: 77 F (25 C)
Relative Humidity: 100%
Pressure (altimeter): 29.98 in. Hg (1015 hPa)
ob: MMVA 220245Z 00000KT 6SM SCT030 BKN200 25/25 A2998 RMK 6//// 8/503
cycle: 3

Station Type Date Time Source
MMVA TAF 2020/09/22 00:13 UTC NOAA

TAF
AMD MMVA 220005Z 2200/2218 00000KT 6SM HZ SCT020 BKN070
BECMG 2203/2204 25005KT
FM221000 25005KT 5SM HZ BKN015 BKN070
TEMPO 2211/2215 3SM BR HZ

Example: see airport list